Time;durP1;ratioP1;P1;durP2;ratioP2;P2;SDS_P1;SDS_P2;PMS_P1;PMS_P2;Temp;Humidity;BMP_temperature;BMP_pressure;BME280_temperature;BME280_humidity;BME280_pressure;Samples;Min_cycle;Max_cycle;Signal;HPM_P1;HPM_P2
2022/07/31 00:00:14;;;;;;;3.60;1.55;;;16.70;1.00;;;17.00;66.39;99358.78;5061900;27;129890;-74
2022/07/31 00:02:43;;;;;;;4.05;1.60;;;16.70;1.30;;;17.04;66.13;99359.66;5062262;27;129471;-74
2022/07/31 00:05:12;;;;;;;4.18;1.75;;;16.70;1.80;;;16.97;66.44;99354.00;5062613;27;120115;-75
2022/07/31 00:07:41;;;;;;;3.60;1.80;;;16.70;2.30;;;17.00;66.26;99348.63;5062704;27;119540;-77
2022/07/31 00:10:10;;;;;;;3.38;1.70;;;16.70;2.10;;;16.98;65.98;99350.13;5062091;27;130141;-78
2022/07/31 00:12:39;;;;;;;5.32;1.98;;;16.70;1.00;;;16.97;65.98;99348.53;5047635;27;128850;-75
2022/07/31 00:15:11;;;;;;;3.28;1.52;;;16.60;1.10;;;16.95;65.90;99342.63;5047842;27;119186;-75
2022/07/31 00:17:40;;;;;;;4.45;2.38;;;16.60;1.00;;;16.91;66.05;99337.06;5062748;27;119235;-77
2022/07/31 00:20:13;;;;;;;3.70;1.85;;;16.60;1.00;;;16.95;66.16;99334.41;5042994;27;129903;-74
2022/07/31 00:22:43;;;;;;;4.70;1.70;;;16.60;1.00;;;16.91;65.76;99328.03;5043881;27;130213;-74
2022/07/31 00:25:13;;;;;;;3.47;1.70;;;16.70;1.00;;;16.88;66.01;99330.34;5047851;27;119332;-76
2022/07/31 00:27:42;;;;;;;3.22;1.70;;;16.70;1.00;;;16.94;66.06;99330.06;5047276;27;118572;-77
2022/07/31 00:30:12;;;;;;;4.13;1.83;;;16.60;1.00;;;16.93;65.89;99325.75;5043569;27;129806;-74
2022/07/31 00:32:41;;;;;;;3.28;1.60;;;16.60;1.00;;;16.88;65.80;99327.59;5046587;27;128162;-74
2022/07/31 00:35:11;;;;;;;3.42;1.70;;;16.60;1.00;;;16.85;66.41;99324.75;5043733;27;119534;-76
2022/07/31 00:37:44;;;;;;;3.72;1.60;;;16.60;1.00;;;16.83;66.15;99327.84;5047425;27;118569;-75
2022/07/31 00:40:17;;;;;;;4.97;1.77;;;16.60;1.00;;;16.80;66.17;99312.13;5064738;27;130067;-78
2022/07/31 00:42:45;;;;;;;4.88;2.03;;;16.60;1.00;;;16.87;66.09;99315.03;5029776;27;128429;-76
2022/07/31 00:45:15;;;;;;;5.00;2.00;;;16.60;1.00;;;16.86;65.43;99321.69;5042191;27;122335;-73
2022/07/31 00:47:44;;;;;;;5.18;1.67;;;16.60;1.00;;;16.89;65.13;99318.25;5043638;27;122075;-74
2022/07/31 00:50:13;;;;;;;5.75;1.80;;;16.60;1.00;;;16.84;65.36;99315.75;5061374;27;130442;-75
2022/07/31 00:52:45;;;;;;;3.25;1.63;;;16.70;1.00;;;16.79;65.22;99316.00;5061204;27;129609;-74
2022/07/31 00:55:14;;;;;;;4.57;1.55;;;16.70;1.00;;;16.85;65.47;99316.53;5029522;27;119335;-75
2022/07/31 00:57:43;;;;;;;3.53;1.75;;;16.70;1.00;;;16.82;65.29;99304.34;5029926;27;118112;-73
2022/07/31 01:00:14;;;;;;;5.28;1.70;;;16.60;1.00;;;16.83;65.52;99297.72;5061309;27;130654;-78
2022/07/31 01:02:43;;;;;;;3.42;1.60;;;16.60;1.00;;;16.80;65.65;99301.16;5043820;27;129369;-75
2022/07/31 01:05:12;;;;;;;3.13;1.65;;;16.70;1.00;;;16.85;65.14;99287.19;5061746;27;120243;-77
2022/07/31 01:07:40;;;;;;;3.13;1.50;;;16.70;1.00;;;16.86;65.01;99293.47;5043454;27;119778;-76
2022/07/31 01:10:13;;;;;;;3.30;1.63;;;16.70;1.00;;;16.85;65.38;99291.88;5058929;27;129916;-78
2022/07/31 01:12:51;;;;;;;4.35;1.75;;;16.70;1.00;;;16.91;64.88;99289.66;5046310;27;129647;-75
2022/07/31 01:15:21;;;;;;;3.65;1.70;;;16.60;1.00;;;16.94;65.21;99288.94;5042992;27;119435;-77
2022/07/31 01:17:53;;;;;;;4.45;1.70;;;16.70;1.00;;;16.97;64.70;99282.75;5046363;27;119127;-79
2022/07/31 01:20:22;;;;;;;2.60;1.52;;;16.60;1.00;;;16.93;65.55;99281.91;5043003;27;129659;-77
2022/07/31 01:23:21;;;;;;;2.97;1.50;;;16.70;1.00;;;16.95;64.39;99285.06;5042864;27;129321;-76
2022/07/31 01:26:46;;;;;;;3.65;1.63;;;16.70;1.00;;;16.94;64.21;99280.72;4971401;27;118735;-74
2022/07/31 01:29:24;;;;;;;3.15;1.50;;;16.70;1.00;;;16.93;64.29;99276.41;5042483;27;119955;-73
2022/07/31 01:32:01;;;;;;;2.75;1.60;;;16.70;1.00;;;16.88;64.12;99281.00;5043019;27;130396;-75
2022/07/31 01:34:38;;;;;;;2.55;1.25;;;16.70;1.00;;;16.97;64.55;99269.03;5042836;27;129585;-73
2022/07/31 01:37:19;;;;;;;3.38;1.65;;;16.70;1.00;;;16.89;64.01;99266.16;5028177;27;120690;-74
2022/07/31 01:40:00;;;;;;;5.25;1.77;;;16.70;1.00;;;16.91;64.52;99263.06;5042769;27;121900;-76
2022/07/31 01:42:30;;;;;;;2.55;1.45;;;16.70;1.00;;;16.89;64.77;99263.44;5042383;27;129821;-75
2022/07/31 01:45:03;;;;;;;4.38;1.70;;;16.70;1.00;;;16.81;65.20;99264.41;5045487;27;129799;-73
2022/07/31 01:47:33;;;;;;;3.67;1.60;;;16.60;1.00;;;16.92;65.05;99258.38;5042613;27;119530;-78
2022/07/31 01:50:06;;;;;;;3.38;1.70;;;16.60;1.00;;;16.93;65.43;99259.97;5042824;27;118994;-76
2022/07/31 01:52:36;;;;;;;3.35;1.40;;;16.60;1.00;;;16.88;65.57;99258.31;5028654;27;128870;-75
2022/07/31 01:55:07;;;;;;;2.92;1.40;;;16.60;1.00;;;16.82;65.99;99255.00;5041859;27;130093;-75
2022/07/31 01:57:38;;;;;;;5.47;1.77;;;16.50;1.80;;;16.84;65.74;99251.91;5026647;27;118340;-75
2022/07/31 02:00:11;;;;;;;3.22;1.70;;;16.40;2.30;;;16.66;66.83;99257.03;5047178;27;119889;-73
2022/07/31 02:02:45;;;;;;;2.78;1.60;;;16.40;3.10;;;16.69;66.74;99245.34;5042080;27;129743;-71
2022/07/31 02:05:16;;;;;;;4.05;1.50;;;16.40;4.80;;;16.66;67.14;99246.06;5045779;27;129203;-76
2022/07/31 02:07:46;;;;;;;5.28;1.70;;;16.40;6.80;;;16.66;67.12;99243.34;5043145;27;119706;-76
2022/07/31 02:10:17;;;;;;;3.03;1.70;;;16.40;6.40;;;16.65;67.48;99233.50;5046879;27;119572;-75
2022/07/31 02:12:48;;;;;;;3.53;1.88;;;16.40;8.60;;;16.74;67.39;99236.84;5040215;27;129915;-73
2022/07/31 02:15:19;;;;;;;2.85;1.70;;;16.40;11.60;;;16.78;68.07;99234.97;5042397;27;129599;-76
2022/07/31 02:17:50;;;;;;;4.35;1.95;;;16.30;13.00;;;16.77;67.60;99225.16;5038929;27;119482;-72
2022/07/31 02:20:25;;;;;;;7.78;1.77;;;16.30;12.50;;;16.73;67.85;99229.75;5042368;27;118946;-77
2022/07/31 02:22:57;;;;;;;4.25;1.58;;;16.40;13.10;;;16.68;68.21;99232.78;5041728;27;129832;-76
2022/07/31 02:25:26;;;;;;;4.25;1.60;;;16.30;14.10;;;16.71;68.12;99223.84;5045304;27;129079;-77
2022/07/31 02:27:57;;;;;;;3.30;1.80;;;16.30;15.80;;;16.75;68.56;99232.97;5041174;27;122104;-77
2022/07/31 02:30:30;;;;;;;4.95;2.05;;;16.30;17.40;;;16.75;68.36;99230.22;5043587;27;121828;-73
2022/07/31 02:33:00;;;;;;;3.22;1.65;;;16.30;17.20;;;16.75;68.86;99216.50;5041877;27;130627;-77
2022/07/31 02:35:31;;;;;;;5.10;1.88;;;16.30;19.80;;;16.74;68.73;99214.91;5045377;27;129198;-77
2022/07/31 02:38:01;;;;;;;3.08;1.63;;;16.30;20.50;;;16.75;68.55;99216.50;5028601;27;118490;-77
2022/07/31 02:40:30;;;;;;;4.40;1.58;;;16.30;20.60;;;16.72;68.85;99217.25;5045516;27;119221;-76
2022/07/31 02:42:59;;;;;;;4.93;1.83;;;16.30;20.90;;;16.68;68.92;99210.88;5042059;27;129736;-76
2022/07/31 02:45:29;;;;;;;4.38;1.52;;;16.30;19.60;;;16.73;69.02;99210.59;5045506;27;129747;-73
2022/07/31 02:47:58;;;;;;;3.88;1.85;;;16.30;21.40;;;16.76;69.21;99212.59;5042245;27;119568;-75
2022/07/31 02:50:27;;;;;;;3.83;1.90;;;16.30;23.30;;;16.75;69.33;99213.78;5045237;27;119249;-77
2022/07/31 02:52:55;;;;;;;5.57;1.77;;;16.30;23.80;;;16.70;69.54;99205.81;5040700;27;130188;-76
2022/07/31 02:55:25;;;;;;;3.33;1.77;;;16.30;23.30;;;16.69;69.58;99207.00;5044366;27;129252;-73
2022/07/31 02:57:53;;;;;;;4.05;1.80;;;16.30;23.80;;;16.78;69.27;99210.31;5028449;27;118866;-77
2022/07/31 03:00:25;;;;;;;6.05;1.92;;;16.30;25.60;;;16.75;69.53;99204.75;5028319;27;118220;-74
2022/07/31 03:02:56;;;;;;;4.00;1.58;;;16.30;26.70;;;16.63;70.09;99202.94;5041444;27;129646;-74
2022/07/31 03:05:26;;;;;;;3.60;1.90;;;16.30;26.90;;;16.58;70.23;99198.56;5061592;27;130139;-76
2022/07/31 03:07:55;;;;;;;3.88;1.52;;;16.20;27.70;;;16.56;70.23;99192.63;5045092;27;118738;-74
2022/07/31 03:10:24;;;;;;;7.22;1.52;;;16.20;27.80;;;16.50;71.14;99194.06;5028609;27;120237;-76
2022/07/31 03:13:02;;;;;;;2.90;1.67;;;16.20;36.30;;;16.50;71.13;99192.13;5042891;27;130204;-75
2022/07/31 03:15:32;;;;;;;3.72;1.63;;;16.20;33.80;;;16.47;71.29;99190.09;5041125;27;130391;-74
2022/07/31 03:18:04;;;;;;;2.78;1.60;;;16.20;33.80;;;16.42;71.71;99190.38;5043504;27;121801;-76
2022/07/31 03:20:41;;;;;;;7.70;1.98;;;16.20;33.80;;;16.40;71.77;99197.38;5027925;27;120802;-72
2022/07/31 03:23:13;;;;;;;4.60;2.03;;;16.10;33.70;;;16.51;71.94;99207.38;5027616;27;128905;-76
2022/07/31 03:26:08;;;;;;;4.07;1.58;;;16.10;33.80;;;16.68;71.33;99202.66;5040713;27;129677;-75
2022/07/31 03:28:37;;;;;;;6.60;1.90;;;16.10;35.50;;;16.70;71.37;99197.59;5045548;27;119869;-75
2022/07/31 03:31:06;;;;;;;3.97;1.95;;;16.20;36.00;;;16.62;71.92;99198.63;5029341;27;118464;-74
2022/07/31 03:33:37;;;;;;;3.97;1.90;;;16.10;40.00;;;16.63;71.66;99200.22;5042264;27;130273;-77
2022/07/31 03:36:08;;;;;;;3.90;1.92;;;16.10;40.80;;;16.57;72.41;99202.44;5044608;27;129095;-74
2022/07/31 03:38:36;;;;;;;4.03;2.22;;;16.10;41.00;;;16.52;72.88;99203.50;5027774;27;118241;-75
2022/07/31 03:41:06;;;;;;;5.85;2.00;;;16.10;44.90;;;16.46;73.04;99202.19;5044628;27;118845;-76
2022/07/31 03:43:35;;;;;;;4.18;2.08;;;16.10;45.90;;;16.50;73.75;99200.34;5025917;27;129138;-74
2022/07/31 03:46:05;;;;;;;4.28;1.83;;;16.10;50.70;;;16.57;74.62;99210.66;5041986;27;130071;-73
2022/07/31 03:48:35;;;;;;;6.60;1.90;;;16.10;59.90;;;16.49;76.97;99200.69;5041059;27;119358;-75
2022/07/31 03:51:05;;;;;;;4.93;2.08;;;16.00;78.10;;;16.28;79.24;99187.31;5044177;27;119285;-76
2022/07/31 03:53:34;;;;;;;4.10;2.13;;;15.80;92.20;;;16.06;82.41;99186.03;5041181;27;129697;-76
2022/07/31 03:56:05;;;;;;;3.42;2.28;;;15.70;99.90;;;15.85;85.37;99202.75;5043999;27;128998;-75
2022/07/31 03:58:34;;;;;;;6.90;2.40;;;15.40;99.90;;;15.73;89.90;99203.63;5040849;27;119722;-77
2022/07/31 04:01:03;;;;;;;5.85;2.47;;;15.20;99.90;;;15.48;92.75;99200.25;5042768;27;119628;-76
2022/07/31 04:03:32;;;;;;;5.07;2.50;;;15.00;99.90;;;15.35;94.07;99199.50;5040631;27;130532;-74
2022/07/31 04:06:20;;;;;;;5.55;2.20;;;14.80;99.90;;;15.29;95.17;99209.94;5043803;27;128852;-74
2022/07/31 04:08:49;;;;;;;5.13;2.33;;;14.70;99.90;;;15.14;95.54;99202.50;5039556;27;121957;-73
2022/07/31 04:11:18;;;;;;;4.28;2.50;;;14.70;99.90;;;15.10;96.52;99192.25;5027302;27;121499;-72
2022/07/31 04:13:46;;;;;;;5.10;2.45;;;14.70;99.90;;;14.91;100.00;99197.56;5040375;27;129950;-74
2022/07/31 04:16:15;;;;;;;5.78;2.25;;;14.50;99.90;;;15.01;100.00;99199.81;5043699;27;129066;-73
2022/07/31 04:18:44;;;;;;;5.55;2.47;;;14.60;99.90;;;14.98;100.00;99195.03;5043957;27;118773;-73
2022/07/31 04:21:12;;;;;;;5.50;2.53;;;14.60;99.90;;;15.05;100.00;99200.72;5043876;27;119078;-73
2022/07/31 04:23:42;;;;;;;4.35;2.58;;;14.50;99.90;;;14.96;100.00;99191.88;5040111;27;129973;-74
2022/07/31 04:26:16;;;;;;;6.50;2.70;;;14.50;99.90;;;14.82;100.00;99194.19;5042065;27;130518;-74
2022/07/31 04:28:51;;;;;;;4.28;2.47;;;14.40;99.90;;;14.76;100.00;99198.28;5040643;27;119545;-73
2022/07/31 04:31:20;;;;;;;6.50;2.47;;;14.40;99.90;;;14.71;100.00;99197.41;5043656;27;118944;-72
2022/07/31 04:33:49;;;;;;;5.40;2.63;;;14.30;99.90;;;14.73;100.00;99189.66;5038788;27;130051;-74
2022/07/31 04:36:18;;;;;;;6.25;2.60;;;14.40;99.90;;;14.87;100.00;99189.28;5039841;27;129516;-75
2022/07/31 04:38:47;;;;;;;5.10;2.33;;;14.50;99.90;;;14.95;100.00;99179.34;5040656;27;119754;-73
2022/07/31 04:41:17;;;;;;;4.32;2.50;;;14.50;99.90;;;15.10;100.00;99186.78;5043396;27;121034;-74
2022/07/31 04:43:45;;;;;;;6.45;2.70;;;14.60;99.90;;;15.30;100.00;99183.38;5040110;27;130559;-74
2022/07/31 04:46:14;;;;;;;6.20;3.00;;;14.70;99.90;;;15.53;100.00;99180.84;5041926;27;129244;-75
2022/07/31 04:48:42;;;;;;;7.53;2.72;;;14.90;99.90;;;15.57;100.00;99170.78;5043462;27;118749;-76
2022/07/31 04:51:18;;;;;;;5.72;2.92;;;14.90;99.90;;;15.75;100.00;99177.50;5043788;27;119729;-74
2022/07/31 04:53:50;;;;;;;6.63;2.70;;;15.10;99.90;;;15.93;100.00;99167.00;5040188;27;129982;-74
2022/07/31 04:56:36;;;;;;;4.68;2.70;;;15.20;99.90;;;15.92;99.88;99161.88;5041522;27;128829;-74
2022/07/31 04:59:07;;;;;;;5.25;2.65;;;15.20;99.90;;;16.15;99.46;99173.75;5038358;27;121280;-75
2022/07/31 05:01:39;;;;;;;4.78;3.05;;;15.40;99.90;;;16.38;98.92;99167.59;5059405;27;121730;-74
2022/07/31 05:04:09;;;;;;;4.22;2.58;;;15.50;99.90;;;16.52;98.13;99158.91;5042133;27;129155;-73
2022/07/31 05:06:41;;;;;;;5.10;2.85;;;15.60;99.90;;;16.50;98.20;99162.00;5059222;27;129587;-73
2022/07/31 05:09:14;;;;;;;8.15;3.20;;;15.60;99.90;;;16.67;98.51;99165.44;5062033;27;119499;-73
2022/07/31 05:11:44;;;;;;;5.78;2.88;;;15.70;99.90;;;16.70;97.34;99171.03;5059354;27;119309;-78
2022/07/31 05:14:16;;;;;;;5.30;3.08;;;15.70;99.90;;;16.94;96.90;99171.09;5059185;27;130005;-74
2022/07/31 05:16:46;;;;;;;4.70;2.92;;;15.80;99.90;;;17.11;96.58;99173.41;5039083;27;130079;-75
2022/07/31 05:19:17;;;;;;;5.10;3.00;;;16.00;99.90;;;17.10;95.56;99171.00;5055430;27;119698;-75
2022/07/31 05:22:21;;;;;;;6.00;2.92;;;15.90;99.90;;;17.13;96.14;99170.28;5029854;27;119192;-73
2022/07/31 05:25:10;;;;;;;5.32;3.10;;;16.00;99.90;;;17.18;97.03;99173.50;5038605;27;129817;-78
2022/07/31 05:27:39;;;;;;;5.93;2.90;;;16.10;99.90;;;17.40;96.45;99173.91;5038035;27;130009;-76
2022/07/31 05:30:09;;;;;;;5.85;3.17;;;16.30;99.90;;;17.60;95.73;99161.69;5038614;27;119533;-76
2022/07/31 05:32:38;;;;;;;4.53;3.13;;;16.40;99.90;;;17.77;95.03;99167.84;5056502;27;120984;-76
2022/07/31 05:35:08;;;;;;;8.05;3.10;;;16.60;99.90;;;17.79;95.19;99165.53;5055872;27;130207;-75
2022/07/31 05:37:37;;;;;;;5.60;3.40;;;16.60;99.90;;;17.85;95.52;99161.31;5040997;27;128815;-75
2022/07/31 05:40:11;;;;;;;5.93;3.08;;;16.60;99.90;;;17.69;95.12;99163.41;5038639;27;119385;-76
2022/07/31 05:42:58;;;;;;;6.40;3.80;;;16.60;99.90;;;17.61;96.04;99155.06;5040810;27;119428;-76
2022/07/31 05:45:47;;;;;;;6.28;3.13;;;16.60;99.90;;;17.63;96.23;99159.41;5058269;27;129286;-76
2022/07/31 05:48:17;;;;;;;6.88;3.30;;;16.70;99.90;;;17.57;97.62;99150.66;5040683;27;129113;-74
2022/07/31 05:50:48;;;;;;;5.07;2.90;;;16.60;99.90;;;17.54;98.40;99146.69;5037995;27;122291;-72
2022/07/31 05:53:17;;;;;;;6.55;3.53;;;16.70;99.90;;;17.30;99.73;99153.38;5060918;27;121359;-74
2022/07/31 05:56:19;;;;;;;6.22;3.78;;;16.60;99.90;;;17.29;100.00;99150.97;5016567;27;130198;-78
2022/07/31 05:58:51;;;;;;;7.07;3.97;;;16.50;99.90;;;17.35;100.00;99157.75;5061445;27;129612;-76
2022/07/31 06:01:19;;;;;;;6.43;3.30;;;16.50;99.90;;;17.56;100.00;99160.06;5059880;27;119610;-78
2022/07/31 06:03:48;;;;;;;8.90;3.63;;;16.60;99.90;;;17.75;99.26;99159.19;5060260;27;119838;-77
2022/07/31 06:06:20;;;;;;;9.05;3.50;;;16.70;99.90;;;17.78;98.42;99155.72;5045061;27;129536;-76
2022/07/31 06:08:48;;;;;;;6.72;3.58;;;16.80;99.90;;;17.99;98.75;99158.00;5041541;27;130842;-80
2022/07/31 06:11:18;;;;;;;6.05;3.60;;;17.00;99.90;;;18.11;98.73;99157.03;5045539;27;119591;-74
2022/07/31 06:13:47;;;;;;;6.63;4.32;;;17.10;99.90;;;18.27;97.51;99154.09;5044368;27;119407;-74
2022/07/31 06:16:42;;;;;;;5.32;3.22;;;17.20;99.90;;;18.12;98.10;99148.41;5044230;27;129635;-75
2022/07/31 06:19:11;;;;;;;5.38;3.30;;;17.20;99.90;;;18.37;96.67;99141.66;5027494;27;128565;-77
2022/07/31 06:21:39;;;;;;;5.78;3.78;;;17.40;99.90;;;18.68;95.75;99152.28;5027293;27;118499;-77
2022/07/31 06:24:09;;;;;;;5.93;3.42;;;17.50;99.90;;;18.69;95.06;99148.34;5040060;27;119123;-75
2022/07/31 06:26:43;;;;;;;6.35;3.67;;;17.60;99.90;;;18.94;93.85;99136.09;5043932;27;130339;-75
2022/07/31 06:29:12;;;;;;;8.52;3.60;;;17.70;99.90;;;18.86;93.25;99146.22;5040796;27;129797;-76
2022/07/31 06:31:41;;;;;;;6.18;3.67;;;17.70;99.90;;;19.19;92.26;99137.13;5041804;27;119463;-73
2022/07/31 06:34:09;;;;;;;5.25;3.30;;;17.90;99.90;;;19.26;91.48;99136.41;5041686;27;119438;-77
2022/07/31 06:36:43;;;;;;;6.65;3.38;;;17.90;99.90;;;19.25;91.33;99132.06;5044453;27;129573;-70
2022/07/31 06:39:16;;;;;;;7.82;3.58;;;18.00;99.90;;;19.38;92.11;99138.06;5040865;27;130516;-76
2022/07/31 06:41:47;;;;;;;6.38;3.67;;;18.10;99.90;;;19.51;90.60;99136.63;5058710;27;122259;-76
2022/07/31 06:44:32;;;;;;;5.93;3.13;;;18.20;99.90;;;19.81;89.46;99130.19;5059038;27;122504;-74
2022/07/31 06:47:22;;;;;;;7.72;3.85;;;18.30;99.90;;;19.82;89.10;99128.22;5061661;27;129823;-71
2022/07/31 06:49:57;;;;;;;7.38;3.65;;;18.40;99.90;;;19.69;89.80;99128.50;5059306;27;129235;-72
2022/07/31 06:52:30;;;;;;;5.82;3.58;;;18.40;99.90;;;19.54;90.69;99119.34;5058131;27;119068;-74
2022/07/31 06:55:01;;;;;;;6.38;3.47;;;18.40;99.90;;;20.07;88.95;99117.34;5082280;27;119093;-74
2022/07/31 06:57:31;;;;;;;5.10;3.22;;;18.70;99.90;;;20.02;88.11;99114.97;5060398;27;130002;-76
2022/07/31 06:59:59;;;;;;;7.55;3.28;;;18.70;99.90;;;20.27;87.64;99120.63;5061821;27;129484;-76
2022/07/31 07:02:28;;;;;;;4.53;3.10;;;18.80;99.90;;;20.47;86.53;99110.88;5062885;27;119764;-78
2022/07/31 07:04:57;;;;;;;5.65;3.42;;;19.00;99.90;;;20.48;86.15;99108.91;5059408;27;119622;-76
2022/07/31 07:07:26;;;;;;;5.97;3.28;;;19.00;99.90;;;20.47;85.74;99113.66;5075253;27;130833;-77
2022/07/31 07:09:58;;;;;;;7.93;3.40;;;19.00;99.90;;;20.52;85.54;99103.41;5064108;27;129390;-76
2022/07/31 07:12:48;;;;;;;6.45;3.30;;;19.00;99.90;;;20.34;85.68;99114.38;5053410;27;119976;-76
2022/07/31 07:15:17;;;;;;;6.28;3.35;;;18.90;99.90;;;20.05;87.15;99109.47;5068537;27;118920;-74
2022/07/31 07:17:45;;;;;;;5.05;3.08;;;18.70;99.90;;;20.00;87.86;99112.59;5063118;27;130164;-79
2022/07/31 07:20:18;;;;;;;5.78;3.25;;;18.70;99.90;;;19.72;90.48;99113.19;5050346;27;128942;-75
2022/07/31 07:22:47;;;;;;;5.03;3.40;;;18.60;99.90;;;19.87;90.30;99114.13;5065225;27;119882;-75
2022/07/31 07:25:24;;;;;;;6.97;3.50;;;18.60;99.90;;;19.89;89.65;99100.75;5068874;27;118825;-75
2022/07/31 07:27:55;;;;;;;7.78;3.55;;;18.60;99.90;;;19.97;89.42;99110.63;5066477;27;128904;-75
2022/07/31 07:30:27;;;;;;;6.05;3.08;;;18.70;99.90;;;20.03;89.32;99106.31;5067631;27;129074;-78
2022/07/31 07:32:58;;;;;;;8.98;3.80;;;18.70;99.90;;;20.22;88.67;99118.25;5060548;27;122486;-79
2022/07/31 07:35:27;;;;;;;5.30;3.25;;;18.80;99.90;;;20.48;87.74;99109.69;5044331;27;122171;-74
2022/07/31 07:37:56;;;;;;;6.75;3.72;;;18.90;99.90;;;20.41;87.03;99126.22;5059572;27;129956;-76
2022/07/31 07:40:26;;;;;;;7.03;3.67;;;18.90;99.90;;;20.46;86.56;99108.53;5064252;27;129578;-76
2022/07/31 07:42:56;;;;;;;7.32;3.75;;;18.90;99.90;;;20.42;86.98;99119.50;5030162;27;118883;-74
2022/07/31 07:45:24;;;;;;;5.72;3.20;;;18.90;99.90;;;20.25;87.25;99118.25;5062535;27;119366;-79
2022/07/31 07:47:53;;;;;;;6.25;3.65;;;18.90;99.90;;;20.47;87.79;99121.09;5059788;27;130082;-77
2022/07/31 07:50:22;;;;;;;5.28;3.28;;;19.00;99.90;;;20.47;87.35;99130.19;5047199;27;128920;-72
2022/07/31 07:53:29;;;;;;;6.28;3.10;;;19.00;99.90;;;20.66;87.56;99131.03;5053987;27;119717;-74
2022/07/31 07:56:18;;;;;;;4.80;3.10;;;19.10;99.90;;;20.88;84.75;99125.59;4997907;27;119115;-75
2022/07/31 07:59:14;;;;;;;5.28;3.40;;;19.30;99.90;;;21.08;83.96;99137.84;5044087;27;130991;-73
2022/07/31 08:02:09;;;;;;;4.80;3.00;;;19.40;99.90;;;21.19;84.33;99127.63;5040440;27;129288;-76
2022/07/31 08:04:39;;;;;;;5.70;3.53;;;19.60;99.90;;;21.17;84.07;99127.22;5046859;27;119610;-78
2022/07/31 08:07:07;;;;;;;6.50;3.33;;;19.50;99.90;;;20.80;85.71;99124.78;5061350;27;119450;-73
2022/07/31 08:09:39;;;;;;;6.03;3.35;;;19.30;99.90;;;20.74;86.67;99126.34;5063094;27;129825;-72
2022/07/31 08:12:28;;;;;;;5.75;3.50;;;19.20;99.90;;;20.75;87.27;99131.47;5070494;27;129304;-76
2022/07/31 08:15:24;;;;;;;5.73;3.53;;;19.30;99.90;;;20.52;88.38;99125.47;5044761;27;119662;-77
2022/07/31 08:18:19;;;;;;;5.82;3.90;;;19.10;99.90;;;20.70;88.08;99126.34;5080776;27;119597;-76
2022/07/31 08:20:47;;;;;;;7.72;3.60;;;19.20;99.90;;;20.80;87.71;99119.28;5073642;27;130339;-75
2022/07/31 08:23:16;;;;;;;5.55;3.00;;;19.20;99.90;;;20.75;87.48;99116.91;5078536;27;130051;-75
2022/07/31 08:25:45;;;;;;;5.60;3.55;;;19.20;99.90;;;21.05;86.71;99113.84;5059132;27;122262;-75
2022/07/31 08:28:14;;;;;;;5.85;2.83;;;19.40;99.90;;;21.14;85.44;99113.44;5053390;27;121817;-76
2022/07/31 08:30:45;;;;;;;6.50;3.72;;;19.60;99.90;;;21.59;83.77;99102.06;5062876;27;129467;-72
2022/07/31 08:33:16;;;;;;;6.22;3.58;;;19.80;99.90;;;21.69;83.16;99112.28;5055422;27;129119;-75
2022/07/31 08:35:54;;;;;;;5.03;3.40;;;19.90;99.90;;;21.51;83.56;99107.56;5066821;27;119222;-74
2022/07/31 08:38:22;;;;;;;8.23;3.53;;;19.90;99.90;;;21.63;83.42;99113.84;5048844;27;117933;-74
2022/07/31 08:41:20;;;;;;;5.55;3.65;;;20.00;99.90;;;21.82;82.07;99098.88;5078365;27;130181;-78
2022/07/31 08:43:48;;;;;;;5.88;3.42;;;20.00;99.90;;;21.68;82.15;99094.16;5063386;27;129702;-73
2022/07/31 08:46:18;;;;;;;7.97;3.95;;;20.00;99.90;;;21.62;82.55;99098.50;5081548;27;120114;-73
2022/07/31 08:48:55;;;;;;;6.05;3.88;;;19.90;99.90;;;21.58;82.94;99093.00;5062933;27;119482;-76
2022/07/31 08:51:26;;;;;;;7.03;3.83;;;19.90;99.90;;;21.94;82.26;99094.88;5050702;27;129667;-79
2022/07/31 08:54:13;;;;;;;5.22;3.55;;;20.00;99.90;;;22.14;80.98;99090.47;5061848;27;129433;-77
2022/07/31 08:56:45;;;;;;;5.95;3.60;;;20.20;99.90;;;22.02;79.89;99088.94;5042728;27;120827;-74
2022/07/31 08:59:16;;;;;;;7.03;3.58;;;20.20;99.90;;;21.91;81.03;99085.44;5027965;27;118086;-75
2022/07/31 09:01:46;;;;;;;6.15;3.70;;;20.20;99.90;;;21.86;81.83;99089.41;5045583;27;130925;-75
2022/07/31 09:04:15;;;;;;;5.25;3.50;;;20.20;99.90;;;22.07;80.93;99087.75;5042082;27;129432;-77
2022/07/31 09:06:44;;;;;;;5.68;3.83;;;20.50;99.90;;;22.60;78.89;99083.22;5062952;27;119204;-73
2022/07/31 09:09:13;;;;;;;4.90;3.40;;;20.70;99.90;;;22.67;77.23;99074.09;5042326;27;119361;-74
2022/07/31 09:11:48;;;;;;;8.73;3.42;;;20.80;99.90;;;22.84;76.76;99089.78;5058818;27;130884;-76
2022/07/31 09:14:36;;;;;;;5.90;3.92;;;21.00;99.90;;;23.63;73.78;99083.69;5059515;27;129966;-76
2022/07/31 09:17:14;;;;;;;6.47;3.83;;;21.60;99.90;;;23.60;72.09;99078.19;5043444;27;122837;-74
2022/07/31 09:19:46;;;;;;;7.20;3.78;;;21.50;99.90;;;23.53;74.16;99087.34;5042355;27;122108;-76
2022/07/31 09:22:27;;;;;;;7.50;3.63;;;21.50;99.90;;;23.71;73.26;99087.16;5044823;27;129015;-78
2022/07/31 09:25:11;;;;;;;6.95;3.30;;;21.70;99.90;;;23.99;71.51;99088.88;5041497;27;130039;-72
2022/07/31 09:27:40;;;;;;;6.55;3.50;;;21.90;99.90;;;24.00;71.38;99093.22;5044826;27;119315;-75
2022/07/31 09:30:10;;;;;;;5.43;3.13;;;21.80;99.90;;;23.89;73.07;99094.53;5059549;27;119223;-77
2022/07/31 09:33:14;;;;;;;5.53;3.40;;;21.80;99.90;;;24.37;70.65;99086.09;5059787;27;130346;-77
2022/07/31 09:36:23;;;;;;;8.45;3.20;;;22.20;99.90;;;24.45;69.40;99091.53;4978907;28;129010;-76
2022/07/31 09:38:59;;;;;;;6.38;3.50;;;22.20;99.90;;;24.54;69.70;99083.47;4962823;28;119093;-73
2022/07/31 09:41:33;;;;;;;6.27;3.40;;;22.20;99.90;;;24.89;68.57;99081.47;5022526;27;119599;-76
2022/07/31 09:44:14;;;;;;;6.15;3.30;;;22.50;99.90;;;25.00;68.47;99084.84;5044851;27;132303;-77
2022/07/31 09:46:45;;;;;;;6.82;3.53;;;22.80;99.90;;;25.28;66.36;99091.16;5028568;27;129018;-74
2022/07/31 09:49:15;;;;;;;5.70;3.10;;;22.90;99.90;;;24.83;67.98;99097.00;5044869;27;118796;-82
2022/07/31 09:51:47;;;;;;;5.22;3.53;;;22.60;99.90;;;25.40;67.18;99087.81;5072003;27;119305;-76
2022/07/31 09:54:23;;;;;;;7.28;4.28;;;23.10;99.90;;;25.33;66.54;99085.16;5063403;27;130197;-79
2022/07/31 09:57:11;;;;;;;5.00;3.13;;;22.90;99.90;;;25.15;67.21;99090.16;5079232;27;129511;-78
2022/07/31 09:59:44;;;;;;;7.88;3.88;;;22.60;99.90;;;24.84;67.98;99081.91;5065811;27;119193;-73
2022/07/31 10:02:16;;;;;;;6.40;3.30;;;22.70;99.90;;;24.96;68.31;99081.34;5062360;27;119693;-76
2022/07/31 10:04:50;;;;;;;7.30;3.30;;;22.90;99.90;;;25.39;68.50;99079.91;5048403;27;128980;-80
2022/07/31 10:07:21;;;;;;;7.00;4.45;;;23.00;99.90;;;25.71;65.83;99082.13;5060661;27;129580;-76
2022/07/31 10:09:50;;;;;;;7.00;4.43;;;23.30;98.00;;;25.87;65.15;99083.41;5061154;27;121786;-80
2022/07/31 10:12:45;;;;;;;7.15;3.80;;;23.30;99.90;;;25.78;64.78;99078.44;5065706;27;121442;-77
2022/07/31 10:15:16;;;;;;;5.80;3.58;;;23.20;97.00;;;25.71;65.30;99075.78;5061988;27;129839;-76
2022/07/31 10:17:51;;;;;;;5.55;3.60;;;23.20;98.70;;;25.39;66.03;99080.69;5047125;27;128731;-74
2022/07/31 10:20:56;;;;;;;7.25;3.47;;;22.90;99.90;;;25.54;66.08;99072.91;5070865;27;120512;-77
2022/07/31 10:23:44;;;;;;;7.65;3.72;;;23.00;99.90;;;24.67;69.39;99070.66;5062185;27;119643;-75
2022/07/31 10:26:14;;;;;;;19.60;5.60;;;22.60;99.90;;;25.07;69.41;99068.09;5065069;27;129661;-75
2022/07/31 10:28:44;;;;;;;32.78;12.82;;;22.90;99.90;;;25.34;68.26;99067.28;5061132;27;130367;-76
2022/07/31 10:31:14;;;;;;;12.77;8.32;;;22.90;99.90;;;25.21;67.58;99064.31;5065673;27;119497;-78
2022/07/31 10:33:44;;;;;;;40.65;9.95;;;22.80;99.90;;;25.41;67.08;99075.47;5062529;27;119223;-79
2022/07/31 10:36:38;;;;;;;12.48;6.95;;;22.90;99.90;;;25.32;67.69;99064.13;5079336;27;129975;-76
2022/07/31 10:39:41;;;;;;;7.22;4.40;;;22.90;99.90;;;25.14;68.22;99055.31;5080015;27;129300;-74